Time,TemperatureF,DewpointF,PressureIn,WindDirection,WindDirectionDegrees,WindSpeedMPH,WindSpeedGustMPH,Humidity,HourlyPrecipIn,Conditions,Clouds,dailyrainin,SoftwareType,DateUTC
2013-02-09 00:00:00,24.9,1.1,28.20,NNW,343,0.0,0.0,35,0.00,CLR,,0.00,WeatherDisplay:10.37,2013-02-09 05:00:00,
2013-02-09 00:05:00,24.4,0.7,28.20,NNW,343,0.0,0.0,35,0.00,CLR,,0.00,WeatherDisplay:10.37,2013-02-09 05:05:00,
2013-02-09 00:10:00,24.3,0.5,28.17,NNW,343,0.0,0.0,35,0.00,CLR,,0.00,WeatherDisplay:10.37,2013-02-09 05:10:00,
2013-02-09 00:15:00,24.1,0.3,28.17,NNW,343,0.0,0.0,35,0.00,CLR,,0.00,WeatherDisplay:10.37,2013-02-09 05:15:00,
2013-02-09 00:20:00,23.9,0.2,28.17,NNW,343,0.0,0.0,35,0.00,CLR,,0.00,WeatherDisplay:10.37,2013-02-09 05:20:00,
2013-02-09 00:25:00,23.5,-0.2,28.20,NNW,343,0.0,0.0,35,0.00,CLR,,0.00,WeatherDisplay:10.37,2013-02-09 05:25:00,
2013-02-09 00:30:00,22.8,-0.8,28.20,NNW,343,0.0,0.0,35,0.00,CLR,,0.00,WeatherDisplay:10.37,2013-02-09 05:30:00,
2013-02-09 00:35:00,22.6,-1.0,28.20,NNW,343,0.0,0.0,35,0.00,CLR,,0.00,WeatherDisplay:10.37,2013-02-09 05:35:00,
2013-02-09 00:40:00,22.5,-1.1,28.17,NNW,343,0.0,0.0,35,0.00,CLR,,0.00,WeatherDisplay:10.37,2013-02-09 05:40:00,
2013-02-09 00:45:00,22.3,-1.3,28.17,NNW,343,0.0,0.0,35,0.00,CLR,,0.00,WeatherDisplay:10.37,2013-02-09 05:45:00,
2013-02-09 00:50:00,22.1,-1.4,28.17,NNW,343,0.0,0.0,35,0.00,CLR,,0.00,WeatherDisplay:10.37,2013-02-09 05:50:00,
2013-02-09 00:55:00,21.9,-1.6,28.20,NNW,343,0.0,0.0,35,0.00,CLR,,0.00,WeatherDisplay:10.37,2013-02-09 05:55:00,
2013-02-09 01:00:00,22.1,-1.4,28.20,NNW,343,0.0,0.0,35,0.00,CLR,,0.00,WeatherDisplay:10.37,2013-02-09 06:00:00,
2013-02-09 01:05:00,21.9,-1.6,28.20,NNW,343,0.0,0.0,35,0.00,CLR,,0.00,WeatherDisplay:10.37,2013-02-09 06:05:00,
2013-02-09 01:10:00,21.9,-1.6,28.20,NNW,343,0.0,0.0,35,0.00,CLR,,0.00,WeatherDisplay:10.37,2013-02-09 06:10:00,
2013-02-09 01:15:00,21.9,-1.6,28.20,NNW,343,0.0,0.0,35,0.00,CLR,,0.00,WeatherDisplay:10.37,2013-02-09 06:15:00,
2013-02-09 01:20:00,21.9,-1.6,28.20,NNW,343,0.0,0.0,35,0.00,CLR,,0.00,WeatherDisplay:10.37,2013-02-09 06:20:00,
2013-02-09 01:25:00,21.7,-1.8,28.20,NNW,343,0.0,0.0,35,0.00,CLR,,0.00,WeatherDisplay:10.37,2013-02-09 06:25:00,
2013-02-09 01:30:00,21.6,-1.9,28.20,NNW,343,0.0,0.0,35,0.00,CLR,,0.00,WeatherDisplay:10.37,2013-02-09 06:30:00,
2013-02-09 01:35:00,21.6,-1.9,28.20,NNW,343,0.0,0.0,35,0.00,CLR,,0.00,WeatherDisplay:10.37,2013-02-09 06:35:00,
2013-02-09 01:40:00,21.6,-1.9,28.20,NNW,343,0.0,0.0,35,0.00,CLR,,0.00,WeatherDisplay:10.37,2013-02-09 06:40:00,
2013-02-09 01:45:00,21.6,-1.9,28.20,NNW,343,0.0,0.0,35,0.00,CLR,,0.00,WeatherDisplay:10.37,2013-02-09 06:45:00,
2013-02-09 01:50:00,21.5,-2.0,28.20,NNW,343,0.0,0.0,35,0.00,CLR,,0.00,WeatherDisplay:10.37,2013-02-09 06:50:00,
2013-02-09 02:00:00,21.1,-2.4,28.20,NNW,343,0.0,0.0,35,0.00,CLR,,0.00,WeatherDisplay:10.37,2013-02-09 07:00:00,
2013-02-09 02:05:00,20.9,-2.5,28.20,NNW,343,0.0,0.0,35,0.00,CLR,,0.00,WeatherDisplay:10.37,2013-02-09 07:05:00,
2013-02-09 02:10:00,20.7,-2.7,28.20,NNW,343,0.0,0.0,35,0.00,CLR,,0.00,WeatherDisplay:10.37,2013-02-09 07:10:00,
2013-02-09 02:15:00,20.6,-2.8,28.20,NNW,343,0.0,0.0,35,0.00,CLR,,0.00,WeatherDisplay:10.37,2013-02-09 07:15:00,
2013-02-09 02:20:00,20.7,-2.7,28.20,NNW,343,0.0,0.0,35,0.00,CLR,,0.00,WeatherDisplay:10.37,2013-02-09 07:20:00,
2013-02-09 02:25:00,20.8,-2.6,28.20,NNW,343,0.0,0.0,35,0.00,CLR,,0.00,WeatherDisplay:10.37,2013-02-09 07:25:00,
2013-02-09 02:30:00,20.7,-2.7,28.20,NNW,343,0.0,0.0,35,0.00,CLR,,0.00,WeatherDisplay:10.37,2013-02-09 07:30:00,
2013-02-09 02:35:00,20.7,-2.7,28.20,NNW,343,0.0,0.0,35,0.00,CLR,,0.00,WeatherDisplay:10.37,2013-02-09 07:35:00,
2013-02-09 02:40:00,20.5,-2.9,28.23,NNW,343,0.0,0.0,35,0.00,CLR,,0.00,WeatherDisplay:10.37,2013-02-09 07:40:00,
2013-02-09 02:45:00,20.3,-3.0,28.23,NNW,343,0.0,0.0,35,0.00,CLR,,0.00,WeatherDisplay:10.37,2013-02-09 07:45:00,
2013-02-09 02:50:00,20.5,-2.3,28.23,NNW,343,0.0,0.0,36,0.00,CLR,,0.00,WeatherDisplay:10.37,2013-02-09 07:50:00,
2013-02-09 02:55:00,20.7,-2.1,28.20,NNW,343,0.0,0.0,36,0.00,CLR,,0.00,WeatherDisplay:10.37,2013-02-09 07:55:00,
2013-02-09 03:00:00,20.5,-2.9,28.20,NNW,343,0.0,0.0,35,0.00,CLR,,0.00,WeatherDisplay:10.37,2013-02-09 08:00:00,
2013-02-09 03:05:00,20.3,-3.0,28.20,NNW,343,0.0,0.0,35,0.00,CLR,,0.00,WeatherDisplay:10.37,2013-02-09 08:05:00,
2013-02-09 03:10:00,20.3,-3.0,28.23,NNW,343,0.0,0.0,35,0.00,CLR,,0.00,WeatherDisplay:10.37,2013-02-09 08:10:00,
2013-02-09 03:15:00,20.1,-3.2,28.23,NNW,343,0.0,0.0,35,0.00,CLR,,0.00,WeatherDisplay:10.37,2013-02-09 08:15:00,
2013-02-09 03:20:00,20.1,-3.2,28.23,NNW,343,0.0,0.0,35,0.00,CLR,,0.00,WeatherDisplay:10.37,2013-02-09 08:20:00,
2013-02-09 03:25:00,20.3,-3.0,28.20,NNW,343,0.0,0.0,35,0.00,CLR,,0.00,WeatherDisplay:10.37,2013-02-09 08:25:00,
2013-02-09 03:30:00,20.1,-3.2,28.20,NNW,343,0.0,0.0,35,0.00,CLR,,0.00,WeatherDisplay:10.37,2013-02-09 08:30:00,
2013-02-09 03:35:00,20.3,-3.0,28.20,NNW,343,0.0,0.0,35,0.00,CLR,,0.00,WeatherDisplay:10.37,2013-02-09 08:35:00,
2013-02-09 03:40:00,20.1,-3.2,28.20,NNW,343,0.0,0.0,35,0.00,CLR,,0.00,WeatherDisplay:10.37,2013-02-09 08:40:00,
2013-02-09 03:45:00,20.1,-2.6,28.20,NNW,343,0.0,0.0,36,0.00,CLR,,0.00,WeatherDisplay:10.37,2013-02-09 08:45:00,
2013-02-09 03:50:00,20.1,-2.6,28.20,NNW,343,0.0,0.0,36,0.00,CLR,,0.00,WeatherDisplay:10.37,2013-02-09 08:50:00,
2013-02-09 03:55:00,19.9,-3.4,28.20,NNW,343,0.0,0.0,35,0.00,CLR,,0.00,WeatherDisplay:10.37,2013-02-09 08:55:00,
2013-02-09 04:00:00,19.8,-3.5,28.20,NNW,343,0.0,0.0,35,0.00,CLR,,0.00,WeatherDisplay:10.37,2013-02-09 09:00:00,
2013-02-09 04:05:00,19.8,-2.9,28.20,NNW,343,0.0,0.0,36,0.00,CLR,,0.00,WeatherDisplay:10.37,2013-02-09 09:05:00,
2013-02-09 04:10:00,19.8,-3.5,28.20,NNW,343,0.0,0.0,35,0.00,CLR,,0.00,WeatherDisplay:10.37,2013-02-09 09:10:00,
2013-02-09 04:15:00,19.6,-3.1,28.20,NNW,343,0.0,0.0,36,0.00,CLR,,0.00,WeatherDisplay:10.37,2013-02-09 09:15:00,
2013-02-09 04:20:00,19.6,-3.1,28.20,NNW,343,0.0,0.0,36,0.00,CLR,,0.00,WeatherDisplay:10.37,2013-02-09 09:20:00,
2013-02-09 04:25:00,19.6,-3.1,28.20,NNW,343,0.0,0.0,36,0.00,CLR,,0.00,WeatherDisplay:10.37,2013-02-09 09:25:00,
2013-02-09 04:30:00,19.6,-3.1,28.20,NNW,343,0.0,0.0,36,0.00,CLR,,0.00,WeatherDisplay:10.37,2013-02-09 09:30:00,
2013-02-09 04:35:00,19.5,-3.2,28.20,NNW,343,0.0,0.0,36,0.00,CLR,,0.00,WeatherDisplay:10.37,2013-02-09 09:35:00,
2013-02-09 04:40:00,19.4,-3.3,28.20,NNW,343,0.0,0.0,36,0.00,CLR,,0.00,WeatherDisplay:10.37,2013-02-09 09:40:00,
2013-02-09 04:45:00,19.4,-3.3,28.20,NNW,343,0.0,0.0,36,0.00,CLR,,0.00,WeatherDisplay:10.37,2013-02-09 09:45:00,
2013-02-09 04:50:00,19.5,-3.2,28.20,NNW,343,0.0,0.0,36,0.00,CLR,,0.00,WeatherDisplay:10.37,2013-02-09 09:50:00,
2013-02-09 04:55:00,19.6,-3.1,28.23,NNW,343,0.0,0.0,36,0.00,CLR,,0.00,WeatherDisplay:10.37,2013-02-09 09:55:00,
2013-02-09 05:00:00,19.6,-3.1,28.23,NNW,343,0.0,0.0,36,0.00,CLR,,0.00,WeatherDisplay:10.37,2013-02-09 10:00:00,
2013-02-09 05:05:00,19.4,-3.3,28.23,NNW,343,0.0,0.0,36,0.00,CLR,,0.00,WeatherDisplay:10.37,2013-02-09 10:05:00,
2013-02-09 05:10:00,19.4,-3.3,28.23,NNW,343,0.0,0.0,36,0.00,CLR,,0.00,WeatherDisplay:10.37,2013-02-09 10:10:00,
2013-02-09 05:15:00,19.4,-3.3,28.23,NNW,343,0.0,0.0,36,0.00,CLR,,0.00,WeatherDisplay:10.37,2013-02-09 10:15:00,
2013-02-09 05:20:00,19.0,-3.6,28.23,NNW,343,0.0,0.0,36,0.00,CLR,,0.00,WeatherDisplay:10.37,2013-02-09 10:20:00,
2013-02-09 05:25:00,19.0,-3.6,28.23,NNW,343,0.0,0.0,36,0.00,CLR,,0.00,WeatherDisplay:10.37,2013-02-09 10:25:00,
2013-02-09 05:30:00,18.7,-3.9,28.23,NNW,343,0.0,0.0,36,0.00,CLR,,0.00,WeatherDisplay:10.37,2013-02-09 10:30:00,
2013-02-09 05:35:00,18.7,-3.9,28.23,NNW,343,0.0,0.0,36,0.00,CLR,,0.00,WeatherDisplay:10.37,2013-02-09 10:35:00,
2013-02-09 05:40:00,18.7,-3.3,28.23,NNW,343,0.0,0.0,37,0.00,CLR,,0.00,WeatherDisplay:10.37,2013-02-09 10:40:00,
2013-02-09 05:45:00,18.7,-3.3,28.23,NNW,343,0.0,0.0,37,0.00,CLR,,0.00,WeatherDisplay:10.37,2013-02-09 10:45:00,
2013-02-09 05:50:00,19.0,-3.0,28.23,NNW,343,0.0,0.0,37,0.00,CLR,,0.00,WeatherDisplay:10.37,2013-02-09 10:50:00,
2013-02-09 05:55:00,18.9,-3.2,28.23,NNW,343,0.0,0.0,37,0.00,CLR,,0.00,WeatherDisplay:10.37,2013-02-09 10:55:00,
2013-02-09 06:00:00,19.0,-3.0,28.23,NNW,343,0.0,0.0,37,0.00,CLR,,0.00,WeatherDisplay:10.37,2013-02-09 11:00:00,
2013-02-09 06:05:00,18.7,-3.3,28.23,NNW,343,0.0,0.0,37,0.00,CLR,,0.00,WeatherDisplay:10.37,2013-02-09 11:05:00,
2013-02-09 06:10:00,18.7,-3.3,28.20,NNW,343,0.0,0.0,37,0.00,CLR,,0.00,WeatherDisplay:10.37,2013-02-09 11:10:00,
2013-02-09 06:20:00,18.9,-3.2,28.20,NNW,343,0.0,0.0,37,0.00,CLR,,0.00,WeatherDisplay:10.37,2013-02-09 11:20:00,
2013-02-09 06:25:00,19.2,-2.8,28.23,NNW,343,0.0,0.0,37,0.00,CLR,,0.00,WeatherDisplay:10.37,2013-02-09 11:25:00,
2013-02-09 06:30:00,19.6,-2.5,28.23,NNW,343,0.0,0.0,37,0.00,CLR,,0.00,WeatherDisplay:10.37,2013-02-09 11:30:00,
2013-02-09 06:35:00,19.8,-2.4,28.23,NNW,343,0.0,0.0,37,0.00,CLR,,0.00,WeatherDisplay:10.37,2013-02-09 11:35:00,
2013-02-09 06:40:00,20.1,-2.0,28.23,NNW,343,0.0,0.0,37,0.00,CLR,,0.00,WeatherDisplay:10.37,2013-02-09 11:40:00,
2013-02-09 06:45:00,19.9,-2.2,28.23,NNW,343,0.0,0.0,37,0.00,CLR,,0.00,WeatherDisplay:10.37,2013-02-09 11:45:00,
2013-02-09 06:50:00,19.6,-2.5,28.23,NNW,343,0.0,0.0,37,0.00,CLR,,0.00,WeatherDisplay:10.37,2013-02-09 11:50:00,
2013-02-09 06:55:00,19.4,-2.7,28.23,NNW,343,0.0,0.0,37,0.00,CLR,,0.00,WeatherDisplay:10.37,2013-02-09 11:55:00,
2013-02-09 07:00:00,19.4,-2.7,28.23,NNW,343,0.0,0.0,37,0.00,CLR,,0.00,WeatherDisplay:10.37,2013-02-09 12:00:00,
2013-02-09 07:05:00,19.2,-2.8,28.23,NNW,343,0.0,0.0,37,0.00,CLR,,0.00,WeatherDisplay:10.37,2013-02-09 12:05:00,
2013-02-09 07:10:00,19.2,-2.8,28.23,NNW,343,0.0,0.0,37,0.00,CLR,,0.00,WeatherDisplay:10.37,2013-02-09 12:10:00,
2013-02-09 07:15:00,19.7,-1.9,28.23,NNW,343,0.0,0.0,38,0.00,CLR,,0.00,WeatherDisplay:10.37,2013-02-09 12:15:00,
2013-02-09 07:20:00,20.3,-0.7,28.23,NNW,343,2.0,3.0,39,0.00,CLR,,0.00,WeatherDisplay:10.37,2013-02-09 12:20:00,
2013-02-09 07:25:00,20.5,-0.1,28.23,NNW,343,2.0,3.0,40,0.00,CLR,,0.00,WeatherDisplay:10.37,2013-02-09 12:25:00,
2013-02-09 07:30:00,20.8,1.3,28.23,NNW,344,0.0,4.0,42,0.00,CLR,,0.00,WeatherDisplay:10.37,2013-02-09 12:30:00,
2013-02-09 07:35:00,21.1,2.0,28.23,NNE,31,2.0,4.0,43,0.00,CLR,,0.00,WeatherDisplay:10.37,2013-02-09 12:35:00,
2013-02-09 07:40:00,21.4,2.4,28.23,ENE,73,3.0,4.0,43,0.00,CLR,,0.00,WeatherDisplay:10.37,2013-02-09 12:40:00,
2013-02-09 07:45:00,21.7,2.6,28.23,East,83,0.0,4.0,43,0.00,CLR,,0.00,WeatherDisplay:10.37,2013-02-09 12:45:00,
2013-02-09 07:50:00,21.7,2.6,28.23,East,88,2.0,4.0,43,0.00,CLR,,0.00,WeatherDisplay:10.37,2013-02-09 12:50:00,
2013-02-09 07:55:00,21.7,2.1,28.23,East,81,0.0,4.0,42,0.00,CLR,,0.00,WeatherDisplay:10.37,2013-02-09 12:55:00,
2013-02-09 08:05:00,22.2,2.6,28.23,ENE,78,3.0,5.0,42,0.00,CLR,,0.00,WeatherDisplay:10.37,2013-02-09 13:05:00,
2013-02-09 08:10:00,22.5,2.3,28.26,ENE,77,3.0,5.0,41,0.00,CLR,,0.00,WeatherDisplay:10.37,2013-02-09 13:10:00,
2013-02-09 08:15:00,22.8,1.5,28.26,East,81,0.0,4.0,39,0.00,CLR,,0.00,WeatherDisplay:10.37,2013-02-09 13:15:00,
2013-02-09 08:20:00,23.4,0.9,28.26,East,87,0.0,4.0,37,0.00,CLR,,0.00,WeatherDisplay:10.37,2013-02-09 13:20:00,
2013-02-09 08:25:00,23.6,1.1,28.26,East,86,0.0,4.0,37,0.00,CLR,,0.00,WeatherDisplay:10.37,2013-02-09 13:25:00,
2013-02-09 08:30:00,24.1,0.3,28.26,ENE,78,3.0,4.0,35,0.00,CLR,,0.00,WeatherDisplay:10.37,2013-02-09 13:30:00,
2013-02-09 08:35:00,24.3,-0.8,28.26,East,84,3.0,6.0,33,0.00,CLR,,0.00,WeatherDisplay:10.37,2013-02-09 13:35:00,
2013-02-09 08:40:00,24.3,-1.4,28.26,East,87,3.0,6.0,32,0.00,CLR,,0.00,WeatherDisplay:10.37,2013-02-09 13:40:00,
2013-02-09 08:45:00,24.3,-1.4,28.26,East,94,0.0,4.0,32,0.00,CLR,,0.00,WeatherDisplay:10.37,2013-02-09 13:45:00,
2013-02-09 08:55:00,25.3,-0.5,28.26,East,94,3.0,5.0,32,0.00,CLR,,0.00,WeatherDisplay:10.37,2013-02-09 13:55:00,
2013-02-09 09:05:00,25.8,-2.1,28.26,East,85,2.0,6.0,29,0.00,CLR,,0.00,WeatherDisplay:10.37,2013-02-09 14:05:00,
2013-02-09 09:10:00,25.9,-2.0,28.23,East,91,3.0,6.0,29,0.00,CLR,,0.00,WeatherDisplay:10.37,2013-02-09 14:10:00,
2013-02-09 09:15:00,26.7,-3.7,28.23,East,90,3.0,6.0,26,0.00,CLR,,0.00,WeatherDisplay:10.37,2013-02-09 14:15:00,
2013-02-09 09:20:00,27.1,-3.3,28.23,ESE,104,2.0,6.0,26,0.00,CLR,,0.00,WeatherDisplay:10.37,2013-02-09 14:20:00,
2013-02-09 09:25:00,27.7,-2.8,28.26,ESE,112,3.0,6.0,26,0.00,CLR,,0.00,WeatherDisplay:10.37,2013-02-09 14:25:00,
2013-02-09 09:30:00,28.4,-2.2,28.26,ESE,111,2.0,6.0,26,0.00,CLR,,0.00,WeatherDisplay:10.37,2013-02-09 14:30:00,
2013-02-09 09:35:00,28.7,-4.5,28.26,ESE,106,3.0,6.0,23,0.00,CLR,,0.00,WeatherDisplay:10.37,2013-02-09 14:35:00,
2013-02-09 09:40:00,28.8,-4.4,28.26,ESE,102,5.0,6.0,23,0.00,CLR,,0.00,WeatherDisplay:10.37,2013-02-09 14:40:00,
2013-02-09 09:45:00,29.1,-4.1,28.26,ESE,116,5.0,6.0,23,0.00,CLR,,0.00,WeatherDisplay:10.37,2013-02-09 14:45:00,
2013-02-09 09:50:00,29.3,-4.0,28.26,ESE,121,3.0,6.0,23,0.00,CLR,,0.00,WeatherDisplay:10.37,2013-02-09 14:50:00,
2013-02-09 09:55:00,29.8,-3.5,28.26,ESE,120,3.0,6.0,23,0.00,CLR,,0.00,WeatherDisplay:10.37,2013-02-09 14:55:00,
2013-02-09 10:00:00,30.2,-3.2,28.26,SE,124,3.0,6.0,23,0.00,CLR,,0.00,WeatherDisplay:10.37,2013-02-09 15:00:00,
2013-02-09 10:05:00,30.6,-2.9,28.26,ESE,108,2.0,6.0,23,0.00,CLR,,0.00,WeatherDisplay:10.37,2013-02-09 15:05:00,
2013-02-09 10:10:00,31.1,-5.4,28.26,ESE,117,5.0,6.0,20,0.00,CLR,,0.00,WeatherDisplay:10.37,2013-02-09 15:10:00,
2013-02-09 10:15:00,31.5,-5.1,28.26,SE,125,2.0,6.0,20,0.00,CLR,,0.00,WeatherDisplay:10.37,2013-02-09 15:15:00,
2013-02-09 10:20:00,31.6,-4.9,28.26,SE,130,3.0,6.0,20,0.00,CLR,,0.00,WeatherDisplay:10.37,2013-02-09 15:20:00,
2013-02-09 10:25:00,32.2,-4.5,28.29,SE,135,2.0,6.0,20,0.00,CLR,,0.00,WeatherDisplay:10.37,2013-02-09 15:25:00,
2013-02-09 10:30:00,32.2,-4.4,28.29,SE,129,5.0,6.0,20,0.00,CLR,,0.00,WeatherDisplay:10.37,2013-02-09 15:30:00,
2013-02-09 10:35:00,32.4,-4.3,28.29,ESE,104,5.0,6.0,20,0.00,CLR,,0.00,WeatherDisplay:10.37,2013-02-09 15:35:00,
2013-02-09 10:40:00,33.0,-3.8,28.29,East,101,5.0,6.0,20,0.00,CLR,,0.00,WeatherDisplay:10.37,2013-02-09 15:40:00,
2013-02-09 10:45:00,32.8,-3.9,28.29,ESE,104,5.0,8.0,20,0.00,CLR,,0.00,WeatherDisplay:10.37,2013-02-09 15:45:00,
2013-02-09 10:50:00,33.4,-3.5,28.29,East,96,5.0,6.0,20,0.00,CLR,,0.00,WeatherDisplay:10.37,2013-02-09 15:50:00,
2013-02-09 10:55:00,34.0,-3.0,28.26,ESE,119,5.0,6.0,20,0.00,CLR,,0.00,WeatherDisplay:10.37,2013-02-09 15:55:00,
2013-02-09 11:00:00,33.6,-3.3,28.26,ESE,115,5.0,7.0,20,0.00,CLR,,0.00,WeatherDisplay:10.37,2013-02-09 16:00:00,
2013-02-09 11:05:00,34.1,-2.9,28.26,ESE,103,3.0,6.0,20,0.00,CLR,,0.00,WeatherDisplay:10.37,2013-02-09 16:05:00,
2013-02-09 11:10:00,33.8,-3.1,28.23,East,92,5.0,8.0,20,0.00,CLR,,0.00,WeatherDisplay:10.37,2013-02-09 16:10:00,
2013-02-09 11:15:00,34.5,-2.6,28.23,East,96,5.0,7.0,20,0.00,CLR,,0.00,WeatherDisplay:10.37,2013-02-09 16:15:00,
2013-02-09 11:20:00,35.2,-1.9,28.23,SE,140,2.0,6.0,20,0.00,CLR,,0.00,WeatherDisplay:10.37,2013-02-09 16:20:00,
2013-02-09 11:25:00,36.0,-2.4,28.26,SSE,164,2.0,6.0,19,0.00,CLR,,0.00,WeatherDisplay:10.37,2013-02-09 16:25:00,
2013-02-09 11:30:00,36.2,-2.2,28.26,SSE,159,3.0,7.0,19,0.00,CLR,,0.00,WeatherDisplay:10.37,2013-02-09 16:30:00,
2013-02-09 11:35:00,36.5,-1.9,28.26,SE,143,3.0,7.0,19,0.00,CLR,,0.00,WeatherDisplay:10.37,2013-02-09 16:35:00,
2013-02-09 11:45:00,36.5,-1.9,28.26,ESE,118,5.0,8.0,19,0.00,CLR,,0.00,WeatherDisplay:10.37,2013-02-09 16:45:00,
2013-02-09 11:50:00,36.7,-1.8,28.26,ESE,118,6.0,7.0,19,0.00,CLR,,0.00,WeatherDisplay:10.37,2013-02-09 16:50:00,
2013-02-09 11:55:00,36.7,-1.8,28.26,SE,124,5.0,8.0,19,0.00,CLR,,0.00,WeatherDisplay:10.37,2013-02-09 16:55:00,
2013-02-09 12:00:00,36.8,-1.7,28.26,ESE,105,5.0,6.0,19,0.00,CLR,,0.00,WeatherDisplay:10.37,2013-02-09 17:00:00,
2013-02-09 12:05:00,36.7,-1.7,28.26,ESE,108,6.0,8.0,19,0.00,CLR,,0.00,WeatherDisplay:10.37,2013-02-09 17:05:00,
2013-02-09 12:10:00,36.7,-1.7,28.26,ESE,109,5.0,7.0,19,0.00,CLR,,0.00,WeatherDisplay:10.37,2013-02-09 17:10:00,
2013-02-09 12:15:00,37.2,-1.3,28.26,ESE,115,2.0,7.0,19,0.00,CLR,,0.00,WeatherDisplay:10.37,2013-02-09 17:15:00,
2013-02-09 12:20:00,37.6,-1.0,28.26,SE,136,3.0,6.0,19,0.00,CLR,,0.00,WeatherDisplay:10.37,2013-02-09 17:20:00,
2013-02-09 12:25:00,38.4,-0.4,28.26,SSE,149,3.0,6.0,19,0.00,CLR,,0.00,WeatherDisplay:10.37,2013-02-09 17:25:00,
2013-02-09 12:30:00,38.3,-0.4,28.26,SE,146,3.0,6.0,19,0.00,CLR,,0.00,WeatherDisplay:10.37,2013-02-09 17:30:00,
2013-02-09 12:35:00,38.5,-0.3,28.26,SE,145,3.0,6.0,19,0.00,CLR,,0.00,WeatherDisplay:10.37,2013-02-09 17:35:00,
2013-02-09 12:40:00,38.4,-0.3,28.23,SSE,149,3.0,6.0,19,0.00,CLR,,0.00,WeatherDisplay:10.37,2013-02-09 17:40:00,
2013-02-09 12:45:00,38.5,-0.3,28.23,SE,142,2.0,6.0,19,0.00,CLR,,0.00,WeatherDisplay:10.37,2013-02-09 17:45:00,
2013-02-09 12:50:00,38.8,0.0,28.23,SSE,155,0.0,4.0,19,0.00,CLR,,0.00,WeatherDisplay:10.37,2013-02-09 17:50:00,
2013-02-09 13:00:00,39.2,-0.8,28.20,SE,132,3.0,6.0,18,0.00,CLR,,0.00,WeatherDisplay:10.37,2013-02-09 18:00:00,
2013-02-09 13:10:00,39.2,-0.8,28.23,ESE,123,6.0,8.0,18,0.00,CLR,,0.00,WeatherDisplay:10.37,2013-02-09 18:10:00,
2013-02-09 13:15:00,39.1,-0.9,28.23,ESE,110,3.0,6.0,18,0.00,CLR,,0.00,WeatherDisplay:10.37,2013-02-09 18:15:00,
2013-02-09 13:20:00,39.4,-0.7,28.23,SE,143,3.0,6.0,18,0.00,CLR,,0.00,WeatherDisplay:10.37,2013-02-09 18:20:00,
2013-02-09 13:25:00,39.5,-0.6,28.23,SE,139,3.0,6.0,18,0.00,CLR,,0.00,WeatherDisplay:10.37,2013-02-09 18:25:00,
2013-02-09 13:30:00,40.0,-0.2,28.23,SE,136,3.0,6.0,18,0.00,CLR,,0.00,WeatherDisplay:10.37,2013-02-09 18:30:00,
2013-02-09 13:35:00,39.8,-0.3,28.23,ESE,117,2.0,6.0,18,0.00,CLR,,0.00,WeatherDisplay:10.37,2013-02-09 18:35:00,
2013-02-09 13:40:00,39.3,-0.8,28.20,East,97,3.0,6.0,18,0.00,CLR,,0.00,WeatherDisplay:10.37,2013-02-09 18:40:00,
2013-02-09 13:45:00,39.9,-0.3,28.20,SE,128,3.0,7.0,18,0.00,CLR,,0.00,WeatherDisplay:10.37,2013-02-09 18:45:00,
2013-02-09 13:50:00,39.6,-0.5,28.20,SE,126,5.0,7.0,18,0.00,CLR,,0.00,WeatherDisplay:10.37,2013-02-09 18:50:00,
2013-02-09 13:55:00,39.3,-0.7,28.23,East,92,3.0,6.0,18,0.00,CLR,,0.00,WeatherDisplay:10.37,2013-02-09 18:55:00,
2013-02-09 14:00:00,39.7,-0.4,28.23,ESE,102,1.0,6.0,18,0.00,CLR,,0.00,WeatherDisplay:10.37,2013-02-09 19:00:00,
2013-02-09 14:05:00,40.5,0.2,28.23,SE,128,3.0,7.0,18,0.00,CLR,,0.00,WeatherDisplay:10.37,2013-02-09 19:05:00,
2013-02-09 14:10:00,40.1,-0.1,28.20,SE,132,6.0,8.0,18,0.00,CLR,,0.00,WeatherDisplay:10.37,2013-02-09 19:10:00,
2013-02-09 14:15:00,40.1,-0.1,28.20,SE,136,2.0,7.0,18,0.00,CLR,,0.00,WeatherDisplay:10.37,2013-02-09 19:15:00,
2013-02-09 14:20:00,39.7,-0.4,28.20,SE,127,3.0,6.0,18,0.00,CLR,,0.00,WeatherDisplay:10.37,2013-02-09 19:20:00,
2013-02-09 14:25:00,40.1,-0.1,28.17,SE,144,3.0,9.0,18,0.00,CLR,,0.00,WeatherDisplay:10.37,2013-02-09 19:25:00,
2013-02-09 14:30:00,39.2,-0.8,28.17,SE,133,6.0,8.0,18,0.00,CLR,,0.00,WeatherDisplay:10.37,2013-02-09 19:30:00,
2013-02-09 14:35:00,38.5,-0.3,28.17,ESE,111,6.0,9.0,19,0.00,CLR,,0.00,WeatherDisplay:10.37,2013-02-09 19:35:00,
2013-02-09 14:40:00,38.8,0.0,28.17,ESE,105,6.0,8.0,19,0.00,CLR,,0.00,WeatherDisplay:10.37,2013-02-09 19:40:00,
2013-02-09 14:45:00,39.5,-0.6,28.17,SE,129,6.0,6.0,18,0.00,CLR,,0.00,WeatherDisplay:10.37,2013-02-09 19:45:00,
2013-02-09 14:50:00,39.7,-0.5,28.17,SE,130,5.0,6.0,18,0.00,CLR,,0.00,WeatherDisplay:10.37,2013-02-09 19:50:00,
2013-02-09 14:55:00,39.4,-0.7,28.17,ESE,119,5.0,8.0,18,0.00,CLR,,0.00,WeatherDisplay:10.37,2013-02-09 19:55:00,
2013-02-09 15:00:00,38.4,-0.3,28.17,ESE,114,5.0,8.0,19,0.00,CLR,,0.00,WeatherDisplay:10.37,2013-02-09 20:00:00,
2013-02-09 15:05:00,38.9,0.0,28.17,SE,133,6.0,8.0,19,0.00,CLR,,0.00,WeatherDisplay:10.37,2013-02-09 20:05:00,
2013-02-09 15:10:00,38.8,0.0,28.14,SE,129,5.0,8.0,19,0.00,CLR,,0.00,WeatherDisplay:10.37,2013-02-09 20:10:00,
2013-02-09 15:15:00,38.8,0.0,28.14,SE,124,5.0,8.0,19,0.00,CLR,,0.00,WeatherDisplay:10.37,2013-02-09 20:15:00,
2013-02-09 15:20:00,39.0,0.1,28.14,ESE,116,5.0,8.0,19,0.00,CLR,,0.00,WeatherDisplay:10.37,2013-02-09 20:20:00,
2013-02-09 15:25:00,39.1,0.2,28.17,ESE,108,5.0,6.0,19,0.00,CLR,,0.00,WeatherDisplay:10.37,2013-02-09 20:25:00,
2013-02-09 15:30:00,38.8,0.0,28.17,ESE,119,5.0,8.0,19,0.00,CLR,,0.00,WeatherDisplay:10.37,2013-02-09 20:30:00,
2013-02-09 15:35:00,38.7,-0.1,28.17,ESE,108,5.0,9.0,19,0.00,CLR,,0.00,WeatherDisplay:10.37,2013-02-09 20:35:00,
2013-02-09 15:40:00,39.4,-0.7,28.17,ESE,103,5.0,8.0,18,0.00,CLR,,0.00,WeatherDisplay:10.37,2013-02-09 20:40:00,
2013-02-09 15:45:00,39.6,-0.5,28.17,SE,137,6.0,8.0,18,0.00,CLR,,0.00,WeatherDisplay:10.37,2013-02-09 20:45:00,
2013-02-09 15:50:00,39.6,-0.5,28.17,SSE,150,5.0,6.0,18,0.00,CLR,,0.00,WeatherDisplay:10.37,2013-02-09 20:50:00,
2013-02-09 15:55:00,39.6,-0.5,28.17,SE,139,6.0,8.0,18,0.00,CLR,,0.00,WeatherDisplay:10.37,2013-02-09 20:55:00,
2013-02-09 16:00:00,39.5,-0.6,28.17,SE,130,5.0,7.0,18,0.00,CLR,,0.00,WeatherDisplay:10.37,2013-02-09 21:00:00,
2013-02-09 16:05:00,39.2,-0.8,28.17,ESE,123,6.0,11.0,18,0.00,CLR,,0.00,WeatherDisplay:10.37,2013-02-09 21:05:00,
2013-02-09 16:10:00,39.0,0.2,28.17,SE,125,5.0,8.0,19,0.00,CLR,,0.00,WeatherDisplay:10.37,2013-02-09 21:10:00,
2013-02-09 16:15:00,39.1,-0.9,28.17,ESE,116,3.0,8.0,18,0.00,CLR,,0.00,WeatherDisplay:10.37,2013-02-09 21:15:00,
2013-02-09 16:20:00,39.0,0.2,28.17,ESE,121,5.0,7.0,19,0.00,CLR,,0.00,WeatherDisplay:10.37,2013-02-09 21:20:00,
2013-02-09 16:25:00,39.2,-0.8,28.14,SE,132,6.0,7.0,18,0.00,CLR,,0.00,WeatherDisplay:10.37,2013-02-09 21:25:00,
2013-02-09 16:30:00,39.4,-0.7,28.14,SE,142,2.0,7.0,18,0.00,CLR,,0.00,WeatherDisplay:10.37,2013-02-09 21:30:00,
2013-02-09 16:35:00,39.4,-0.7,28.14,SE,145,6.0,9.0,18,0.00,CLR,,0.00,WeatherDisplay:10.37,2013-02-09 21:35:00,
2013-02-09 16:40:00,39.2,-0.9,28.17,SSE,150,3.0,8.0,18,0.00,CLR,,0.00,WeatherDisplay:10.37,2013-02-09 21:40:00,
2013-02-09 16:45:00,39.0,0.2,28.17,SSE,149,5.0,7.0,19,0.00,CLR,,0.00,WeatherDisplay:10.37,2013-02-09 21:45:00,
2013-02-09 16:50:00,38.8,0.0,28.17,SE,144,3.0,8.0,19,0.00,CLR,,0.00,WeatherDisplay:10.37,2013-02-09 21:50:00,
2013-02-09 16:55:00,38.7,-0.1,28.14,SE,146,3.0,8.0,19,0.00,CLR,,0.00,WeatherDisplay:10.37,2013-02-09 21:55:00,
2013-02-09 17:00:00,38.5,-0.3,28.14,SE,143,3.0,8.0,19,0.00,CLR,,0.00,WeatherDisplay:10.37,2013-02-09 22:00:00,
2013-02-09 17:05:00,38.3,-0.4,28.14,SE,146,3.0,8.0,19,0.00,CLR,,0.00,WeatherDisplay:10.37,2013-02-09 22:05:00,
2013-02-09 17:10:00,37.9,-0.7,28.14,SSE,149,3.0,6.0,19,0.00,CLR,,0.00,WeatherDisplay:10.37,2013-02-09 22:10:00,
2013-02-09 17:15:00,37.8,-0.9,28.14,SE,141,2.0,6.0,19,0.00,CLR,,0.00,WeatherDisplay:10.37,2013-02-09 22:15:00,
2013-02-09 17:20:00,37.6,-1.1,28.14,SE,140,5.0,8.0,19,0.00,CLR,,0.00,WeatherDisplay:10.37,2013-02-09 22:20:00,
2013-02-09 17:25:00,37.0,-1.5,28.17,SE,142,3.0,6.0,19,0.00,CLR,,0.00,WeatherDisplay:10.37,2013-02-09 22:25:00,
2013-02-09 17:30:00,36.7,-1.8,28.17,SE,138,2.0,6.0,19,0.00,CLR,,0.00,WeatherDisplay:10.37,2013-02-09 22:30:00,
2013-02-09 17:35:00,36.3,-2.1,28.17,SSE,148,3.0,6.0,19,0.00,CLR,,0.00,WeatherDisplay:10.37,2013-02-09 22:35:00,
2013-02-09 17:40:00,35.9,-2.4,28.17,SSE,150,0.0,6.0,19,0.00,CLR,,0.00,WeatherDisplay:10.37,2013-02-09 22:40:00,
2013-02-09 17:45:00,35.4,-1.8,28.17,SE,130,3.0,4.0,20,0.00,CLR,,0.00,WeatherDisplay:10.37,2013-02-09 22:45:00,
2013-02-09 17:50:00,34.9,-2.2,28.17,ESE,113,0.0,5.0,20,0.00,CLR,,0.00,WeatherDisplay:10.37,2013-02-09 22:50:00,
2013-02-09 17:55:00,34.5,-2.5,28.14,ESE,107,0.0,4.0,20,0.00,CLR,,0.00,WeatherDisplay:10.37,2013-02-09 22:55:00,
2013-02-09 18:00:00,34.2,-2.8,28.14,ESE,110,2.0,4.0,20,0.00,CLR,,0.00,WeatherDisplay:10.37,2013-02-09 23:00:00,
2013-02-09 18:05:00,33.8,-3.1,28.14,ESE,114,0.0,4.0,20,0.00,CLR,,0.00,WeatherDisplay:10.37,2013-02-09 23:05:00,
2013-02-09 18:10:00,33.4,-3.4,28.14,ESE,114,2.0,4.0,20,0.00,CLR,,0.00,WeatherDisplay:10.37,2013-02-09 23:10:00,
2013-02-09 18:15:00,33.1,-3.7,28.14,ESE,114,0.0,3.0,20,0.00,CLR,,0.00,WeatherDisplay:10.37,2013-02-09 23:15:00,
2013-02-09 18:20:00,32.7,-4.0,28.14,East,95,2.0,3.0,20,0.00,CLR,,0.00,WeatherDisplay:10.37,2013-02-09 23:20:00,
2013-02-09 18:25:00,32.4,-4.3,28.14,East,86,0.0,4.0,20,0.00,CLR,,0.00,WeatherDisplay:10.37,2013-02-09 23:25:00,
2013-02-09 18:30:00,32.2,-4.5,28.14,East,99,2.0,3.0,20,0.00,CLR,,0.00,WeatherDisplay:10.37,2013-02-09 23:30:00,
2013-02-09 18:35:00,31.8,-4.8,28.14,ESE,115,0.0,4.0,20,0.00,CLR,,0.00,WeatherDisplay:10.37,2013-02-09 23:35:00,
2013-02-09 18:40:00,31.6,-4.9,28.14,ESE,111,2.0,4.0,20,0.00,CLR,,0.00,WeatherDisplay:10.37,2013-02-09 23:40:00,
2013-02-09 18:45:00,31.5,-5.1,28.14,East,96,0.0,3.0,20,0.00,CLR,,0.00,WeatherDisplay:10.37,2013-02-09 23:45:00,
2013-02-09 18:50:00,31.3,-5.2,28.14,East,93,2.0,4.0,20,0.00,CLR,,0.00,WeatherDisplay:10.37,2013-02-09 23:50:00,
2013-02-09 18:55:00,31.3,-5.2,28.14,ESE,116,2.0,5.0,20,0.00,CLR,,0.00,WeatherDisplay:10.37,2013-02-09 23:55:00,
2013-02-09 19:00:00,31.1,-5.4,28.14,ESE,118,2.0,3.0,20,0.00,CLR,,0.00,WeatherDisplay:10.37,2013-02-10 00:00:00,
2013-02-09 19:05:00,31.1,-5.4,28.14,East,94,2.0,4.0,20,0.00,CLR,,0.00,WeatherDisplay:10.37,2013-02-10 00:05:00,
2013-02-09 19:10:00,30.9,-5.5,28.14,East,90,2.0,4.0,20,0.00,CLR,,0.00,WeatherDisplay:10.37,2013-02-10 00:10:00,
2013-02-09 19:15:00,30.9,-2.6,28.14,East,93,3.0,6.0,23,0.00,CLR,,0.00,WeatherDisplay:10.37,2013-02-10 00:15:00,
2013-02-09 19:20:00,30.9,-2.6,28.14,East,96,3.0,4.0,23,0.00,CLR,,0.00,WeatherDisplay:10.37,2013-02-10 00:20:00,
2013-02-09 19:25:00,30.7,-2.8,28.11,ESE,108,3.0,5.0,23,0.00,CLR,,0.00,WeatherDisplay:10.37,2013-02-10 00:25:00,
2013-02-09 19:30:00,30.6,-2.9,28.11,ESE,116,2.0,4.0,23,0.00,CLR,,0.00,WeatherDisplay:10.37,2013-02-10 00:30:00,
2013-02-09 19:35:00,30.6,-2.9,28.11,ESE,113,3.0,5.0,23,0.00,CLR,,0.00,WeatherDisplay:10.37,2013-02-10 00:35:00,
2013-02-09 19:40:00,30.6,-2.9,28.11,ESE,108,3.0,6.0,23,0.00,CLR,,0.00,WeatherDisplay:10.37,2013-02-10 00:40:00,
2013-02-09 19:45:00,30.6,-2.9,28.11,ESE,105,1.0,5.0,23,0.00,CLR,,0.00,WeatherDisplay:10.37,2013-02-10 00:45:00,
2013-02-09 19:50:00,30.4,-3.1,28.11,ESE,110,2.0,5.0,23,0.00,CLR,,0.00,WeatherDisplay:10.37,2013-02-10 00:50:00,
2013-02-09 19:55:00,30.2,-3.2,28.11,ESE,104,0.0,4.0,23,0.00,CLR,,0.00,WeatherDisplay:10.37,2013-02-10 00:55:00,
2013-02-09 20:00:00,30.2,-3.2,28.11,ESE,108,2.0,4.0,23,0.00,CLR,,0.00,WeatherDisplay:10.37,2013-02-10 01:00:00,
2013-02-09 20:05:00,30.2,-3.2,28.11,ESE,122,0.0,4.0,23,0.00,CLR,,0.00,WeatherDisplay:10.37,2013-02-10 01:05:00,
2013-02-09 20:10:00,30.2,-3.2,28.11,SE,124,0.0,4.0,23,0.00,CLR,,0.00,WeatherDisplay:10.37,2013-02-10 01:10:00,
2013-02-09 20:15:00,30.2,-3.2,28.11,ESE,111,2.0,4.0,23,0.00,CLR,,0.00,WeatherDisplay:10.37,2013-02-10 01:15:00,
2013-02-09 20:20:00,30.0,-3.4,28.11,ESE,110,0.0,4.0,23,0.00,CLR,,0.00,WeatherDisplay:10.37,2013-02-10 01:20:00,
2013-02-09 20:25:00,29.8,-3.5,28.14,ESE,110,0.0,4.0,23,0.00,CLR,,0.00,WeatherDisplay:10.37,2013-02-10 01:25:00,
2013-02-09 20:30:00,29.7,-3.7,28.14,ESE,112,1.0,4.0,23,0.00,CLR,,0.00,WeatherDisplay:10.37,2013-02-10 01:30:00,
2013-02-09 20:35:00,29.7,-3.7,28.14,ESE,119,2.0,4.0,23,0.00,CLR,,0.00,WeatherDisplay:10.37,2013-02-10 01:35:00,
2013-02-09 20:40:00,29.7,-3.7,28.11,ESE,115,3.0,5.0,23,0.00,CLR,,0.00,WeatherDisplay:10.37,2013-02-10 01:40:00,
2013-02-09 20:45:00,29.5,-3.8,28.11,East,96,0.0,4.0,23,0.00,CLR,,0.00,WeatherDisplay:10.37,2013-02-10 01:45:00,
2013-02-09 20:50:00,29.5,-3.8,28.11,East,96,2.0,5.0,23,0.00,CLR,,0.00,WeatherDisplay:10.37,2013-02-10 01:50:00,
2013-02-09 20:55:00,29.5,-3.8,28.11,ESE,113,2.0,5.0,23,0.00,CLR,,0.00,WeatherDisplay:10.37,2013-02-10 01:55:00,
2013-02-09 21:00:00,29.3,-4.0,28.11,ESE,119,2.0,4.0,23,0.00,CLR,,0.00,WeatherDisplay:10.37,2013-02-10 02:00:00,
2013-02-09 21:05:00,29.3,-4.0,28.11,ESE,113,2.0,6.0,23,0.00,CLR,,0.00,WeatherDisplay:10.37,2013-02-10 02:05:00,
2013-02-09 21:10:00,29.2,-4.1,28.11,ESE,117,0.0,4.0,23,0.00,CLR,,0.00,WeatherDisplay:10.37,2013-02-10 02:10:00,
2013-02-09 21:15:00,28.9,-4.3,28.11,SE,138,2.0,6.0,23,0.00,CLR,,0.00,WeatherDisplay:10.37,2013-02-10 02:15:00,
2013-02-09 21:20:00,28.8,-4.4,28.11,SE,143,2.0,6.0,23,0.00,CLR,,0.00,WeatherDisplay:10.37,2013-02-10 02:20:00,
2013-02-09 21:30:00,28.9,-4.3,28.11,SE,130,2.0,6.0,23,0.00,CLR,,0.00,WeatherDisplay:10.37,2013-02-10 02:30:00,
2013-02-09 21:35:00,29.1,-4.1,28.11,SE,124,3.0,5.0,23,0.00,CLR,,0.00,WeatherDisplay:10.37,2013-02-10 02:35:00,
2013-02-09 21:45:00,29.3,-4.0,28.11,SE,140,2.0,4.0,23,0.00,CLR,,0.00,WeatherDisplay:10.37,2013-02-10 02:45:00,
2013-02-09 21:50:00,29.5,-3.8,28.11,SE,144,2.0,4.0,23,0.00,CLR,,0.00,WeatherDisplay:10.37,2013-02-10 02:50:00,
2013-02-09 21:55:00,29.7,-3.7,28.11,SE,136,2.0,5.0,23,0.00,CLR,,0.00,WeatherDisplay:10.37,2013-02-10 02:55:00,
2013-02-09 22:00:00,29.8,-3.5,28.11,SE,130,2.0,4.0,23,0.00,CLR,,0.00,WeatherDisplay:10.37,2013-02-10 03:00:00,
2013-02-09 22:05:00,30.0,-3.4,28.11,ESE,123,2.0,4.0,23,0.00,CLR,,0.00,WeatherDisplay:10.37,2013-02-10 03:05:00,
2013-02-09 22:10:00,30.2,-3.2,28.08,SE,127,0.0,4.0,23,0.00,CLR,,0.00,WeatherDisplay:10.37,2013-02-10 03:10:00,
2013-02-09 22:20:00,30.4,-3.1,28.08,ESE,115,3.0,6.0,23,0.00,CLR,,0.00,WeatherDisplay:10.37,2013-02-10 03:20:00,
2013-02-09 22:25:00,30.4,-3.1,28.08,ESE,122,1.0,5.0,23,0.00,CLR,,0.00,WeatherDisplay:10.37,2013-02-10 03:25:00,
2013-02-09 22:30:00,30.6,-2.9,28.08,SE,126,0.0,5.0,23,0.00,CLR,,0.00,WeatherDisplay:10.37,2013-02-10 03:30:00,
2013-02-09 22:35:00,30.4,-3.1,28.08,SE,126,1.0,5.0,23,0.00,CLR,,0.00,WeatherDisplay:10.37,2013-02-10 03:35:00,
2013-02-09 22:40:00,30.4,-3.1,28.08,SE,145,0.0,2.0,23,0.00,CLR,,0.00,WeatherDisplay:10.37,2013-02-10 03:40:00,
2013-02-09 22:45:00,30.2,-3.2,28.08,SSE,154,0.0,4.0,23,0.00,CLR,,0.00,WeatherDisplay:10.37,2013-02-10 03:45:00,
2013-02-09 22:50:00,30.2,-3.2,28.08,SSE,154,0.0,4.0,23,0.00,CLR,,0.00,WeatherDisplay:10.37,2013-02-10 03:50:00,
2013-02-09 22:55:00,30.2,-3.2,28.08,SE,144,2.0,4.0,23,0.00,CLR,,0.00,WeatherDisplay:10.37,2013-02-10 03:55:00,
2013-02-09 23:00:00,30.2,-3.2,28.08,SE,132,0.0,3.0,23,0.00,CLR,,0.00,WeatherDisplay:10.37,2013-02-10 04:00:00,
2013-02-09 23:05:00,30.2,-3.2,28.08,SE,132,0.0,6.0,23,0.00,CLR,,0.00,WeatherDisplay:10.37,2013-02-10 04:05:00,
2013-02-09 23:10:00,30.2,-3.2,28.08,SE,133,2.0,6.0,23,0.00,CLR,,0.00,WeatherDisplay:10.37,2013-02-10 04:10:00,
2013-02-09 23:20:00,30.2,-3.2,28.08,ESE,112,0.0,6.0,23,0.00,CLR,,0.00,WeatherDisplay:10.37,2013-02-10 04:20:00,
2013-02-09 23:25:00,30.2,-3.2,28.05,SE,126,2.0,4.0,23,0.00,CLR,,0.00,WeatherDisplay:10.37,2013-02-10 04:25:00,
2013-02-09 23:30:00,30.2,-3.2,28.05,ESE,122,3.0,6.0,23,0.00,CLR,,0.00,WeatherDisplay:10.37,2013-02-10 04:30:00,
2013-02-09 23:35:00,30.2,-3.2,28.05,ESE,121,3.0,5.0,23,0.00,CLR,,0.00,WeatherDisplay:10.37,2013-02-10 04:35:00,
2013-02-09 23:40:00,30.0,-3.4,28.05,ESE,122,2.0,5.0,23,0.00,CLR,,0.00,WeatherDisplay:10.37,2013-02-10 04:40:00,
2013-02-09 23:45:00,29.8,-3.5,28.05,ESE,110,3.0,6.0,23,0.00,CLR,,0.00,WeatherDisplay:10.37,2013-02-10 04:45:00,
2013-02-09 23:50:00,29.7,-3.7,28.05,ESE,122,0.0,6.0,23,0.00,CLR,,0.00,WeatherDisplay:10.37,2013-02-10 04:50:00,
2013-02-09 23:55:00,29.5,-3.8,28.05,SE,133,3.0,5.0,23,0.00,CLR,,0.00,WeatherDisplay:10.37,2013-02-10 04:55:00,